createdAt,value
2022-10-29T00:02:32.479Z,4.72
2022-10-29T00:05:20.257Z,4.90
2022-10-29T00:08:07.721Z,4.90
2022-10-29T00:10:55.371Z,6.57
2022-10-29T00:13:45.800Z,5.68
2022-10-29T00:16:39.220Z,6.25
2022-10-29T00:19:27.752Z,4.95
2022-10-29T00:22:15.711Z,5.88
2022-10-29T00:25:03.346Z,5.45
2022-10-29T00:27:50.822Z,7.05
2022-10-29T00:30:39.713Z,6.20
2022-10-29T00:33:27.229Z,5.80
2022-10-29T00:36:17.906Z,6.40
2022-10-29T00:39:05.674Z,6.47
2022-10-29T00:41:53.927Z,8.32
2022-10-29T00:44:42.248Z,11.60
2022-10-29T00:47:35.211Z,4.93
2022-10-29T00:50:25.941Z,7.88
2022-10-29T00:53:14.330Z,6.20
2022-10-29T00:56:02.870Z,7.10
2022-10-29T00:58:50.582Z,7.18
2022-10-29T01:01:40.279Z,6.53
2022-10-29T01:04:29.411Z,5.40
2022-10-29T01:07:16.892Z,5.05
2022-10-29T01:10:04.628Z,5.75
2022-10-29T01:16:21.577Z,6.47
2022-10-29T01:19:26.639Z,9.23
2022-10-29T01:22:25.947Z,9.25
2022-10-29T01:25:53.847Z,8.93
2022-10-29T01:29:10.273Z,7.30
2022-10-29T01:32:10.912Z,7.85
2022-10-29T01:35:05.868Z,8.88
2022-10-29T01:38:09.188Z,7.78
2022-10-29T01:43:56.940Z,6.30
2022-10-29T01:46:50.871Z,6.95
2022-10-29T01:49:44.543Z,7.18
2022-10-29T01:52:37.691Z,6.68
2022-10-29T02:01:27.056Z,6.07
2022-10-29T02:04:51.448Z,6.40
2022-10-29T02:07:50.727Z,3.97
2022-10-29T02:10:47.649Z,5.28
2022-10-29T02:13:42.484Z,6.13
2022-10-29T02:16:32.535Z,6.38
2022-10-29T02:19:20.509Z,5.20
2022-10-29T02:22:09.493Z,5.93
2022-10-29T02:24:57.575Z,4.68
2022-10-29T02:27:45.403Z,5.10
2022-10-29T02:30:33.051Z,5.85
2022-10-29T02:33:21.508Z,5.15
2022-10-29T02:36:10.467Z,4.82
2022-10-29T02:39:00.225Z,5.15
2022-10-29T02:41:48.030Z,4.47
2022-10-29T02:44:35.592Z,8.27
2022-10-29T02:47:23.513Z,4.85
2022-10-29T02:50:11.569Z,5.07
2022-10-29T02:52:59.601Z,6.15
2022-10-29T02:55:48.661Z,5.38
2022-10-29T02:58:36.986Z,5.43
2022-10-29T03:01:25.209Z,6.43
2022-10-29T03:04:13.512Z,4.32
2022-10-29T03:07:01.489Z,7.22
2022-10-29T03:09:49.224Z,5.72
2022-10-29T03:12:38.548Z,5.25
2022-10-29T03:15:26.557Z,6.10
2022-10-29T03:18:15.001Z,5.72
2022-10-29T03:21:02.457Z,5.05
2022-10-29T03:23:50.311Z,6.15
2022-10-29T03:26:38.122Z,6.22
2022-10-29T03:29:26.978Z,5.22
2022-10-29T03:32:14.524Z,3.80
2022-10-29T03:35:01.893Z,6.95
2022-10-29T03:37:51.722Z,5.53
2022-10-29T03:40:39.616Z,4.47
2022-10-29T03:43:27.661Z,6.28
2022-10-29T03:46:16.565Z,6.65
2022-10-29T03:49:04.576Z,5.50
2022-10-29T03:51:52.655Z,4.70
2022-10-29T03:54:40.713Z,4.93
2022-10-29T03:57:28.188Z,5.22
2022-10-29T04:00:17.508Z,5.32
2022-10-29T04:03:06.492Z,5.53
2022-10-29T04:05:54.795Z,4.75
2022-10-29T04:08:42.675Z,5.80
2022-10-29T04:11:30.123Z,5.00
2022-10-29T04:14:18.157Z,4.63
2022-10-29T04:17:05.479Z,4.47
2022-10-29T04:19:54.418Z,4.82
2022-10-29T04:29:05.953Z,3.85
2022-10-29T04:31:53.740Z,6.07
2022-10-29T04:34:41.135Z,3.58
2022-10-29T04:37:31.706Z,5.05
2022-10-29T04:40:19.512Z,4.70
2022-10-29T04:43:06.967Z,9.55
2022-10-29T04:45:56.691Z,5.78
2022-10-29T04:48:44.522Z,4.85
2022-10-29T04:51:31.977Z,4.57
2022-10-29T04:54:20.753Z,5.10
2022-10-29T04:57:08.443Z,7.20
2022-10-29T04:59:55.905Z,5.43
2022-10-29T05:02:43.882Z,4.28
2022-10-29T05:05:31.551Z,5.80
2022-10-29T05:08:19.087Z,4.57
2022-10-29T05:11:10.371Z,6.25
2022-10-29T05:13:58.233Z,6.03
2022-10-29T05:16:45.942Z,5.43
2022-10-29T05:19:33.405Z,4.88
2022-10-29T05:22:21.674Z,3.90
2022-10-29T05:25:09.610Z,6.22
2022-10-29T05:28:07.579Z,4.63
2022-10-29T05:31:03.348Z,6.85
2022-10-29T05:33:53.880Z,4.60
2022-10-29T05:36:44.408Z,6.78
2022-10-29T05:39:32.185Z,7.57
2022-10-29T05:42:20.145Z,10.65
2022-10-29T05:45:11.511Z,5.30
2022-10-29T05:48:01.630Z,4.60
2022-10-29T05:50:49.457Z,5.20
2022-10-29T05:53:37.670Z,4.00
2022-10-29T05:56:25.769Z,6.28
2022-10-29T05:59:13.572Z,4.07
2022-10-29T06:02:02.517Z,3.95
2022-10-29T06:04:50.387Z,4.45
2022-10-29T06:07:38.252Z,4.10
2022-10-29T06:10:28.130Z,6.43
2022-10-29T06:13:19.407Z,8.07
2022-10-29T06:16:08.537Z,6.65
2022-10-29T06:18:57.531Z,9.93
2022-10-29T06:21:45.281Z,6.70
2022-10-29T06:24:33.226Z,7.53
2022-10-29T06:27:20.866Z,7.20
2022-10-29T06:30:10.442Z,8.38
2022-10-29T06:32:58.887Z,5.82
2022-10-29T06:35:48.514Z,6.05
2022-10-29T06:38:36.172Z,5.53
2022-10-29T06:41:26.600Z,7.60
2022-10-29T06:44:14.339Z,12.63
2022-10-29T06:47:01.677Z,11.52
2022-10-29T06:49:49.386Z,12.20
2022-10-29T06:52:38.863Z,10.05
2022-10-29T06:55:29.854Z,7.25
2022-10-29T06:58:51.232Z,8.07
2022-10-29T07:01:39.303Z,8.65
2022-10-29T07:04:27.297Z,14.57
2022-10-29T07:10:12.207Z,8.02
2022-10-29T07:13:03.569Z,11.57
2022-10-29T07:15:51.761Z,12.50
2022-10-29T07:18:39.518Z,14.20
2022-10-29T07:21:27.653Z,6.03
2022-10-29T07:24:17.560Z,8.45
2022-10-29T07:27:07.528Z,12.25
2022-10-29T07:29:55.321Z,10.75
2022-10-29T07:32:43.095Z,12.73
2022-10-29T07:35:30.911Z,10.07
2022-10-29T07:38:18.761Z,6.57
2022-10-29T07:41:06.853Z,6.68
2022-10-29T07:43:56.384Z,9.68
2022-10-29T07:46:44.567Z,7.75
2022-10-29T07:49:31.875Z,11.52
2022-10-29T07:52:29.964Z,14.32
2022-10-29T07:55:17.890Z,7.88
2022-10-29T07:58:08.880Z,12.35
2022-10-29T08:01:01.623Z,9.20
2022-10-29T08:03:51.709Z,14.77
2022-10-29T08:06:39.659Z,15.88
2022-10-29T08:09:27.096Z,13.10
2022-10-29T08:12:14.683Z,10.50
2022-10-29T08:15:02.006Z,9.18
2022-10-29T08:17:52.428Z,12.73
2022-10-29T08:20:40.326Z,9.93
2022-10-29T08:23:29.228Z,15.85
2022-10-29T08:26:18.019Z,10.25
2022-10-29T08:29:06.951Z,6.53
2022-10-29T08:31:57.463Z,14.18
2022-10-29T08:34:49.639Z,12.52
2022-10-29T08:37:37.590Z,9.75
2022-10-29T08:40:46.168Z,15.60
2022-10-29T08:44:22.120Z,8.80
2022-10-29T08:47:19.045Z,7.55
2022-10-29T08:50:26.370Z,8.70
2022-10-29T08:53:27.620Z,12.27
2022-10-29T08:56:29.417Z,9.88
2022-10-29T08:59:21.203Z,9.45
2022-10-29T09:02:19.663Z,11.40
2022-10-29T09:05:13.098Z,10.45
2022-10-29T09:08:29.147Z,13.07
2022-10-29T09:11:41.942Z,14.48
2022-10-29T09:15:06.112Z,9.75
2022-10-29T09:18:17.093Z,12.88
2022-10-29T09:21:22.581Z,9.82
2022-10-29T09:24:20.547Z,10.18
2022-10-29T09:27:22.101Z,16.30
2022-10-29T09:30:15.847Z,11.50
2022-10-29T09:33:12.026Z,10.88
2022-10-29T09:36:02.469Z,13.10
2022-10-29T09:38:58.927Z,15.98
2022-10-29T09:41:50.092Z,14.73
2022-10-29T09:44:50.090Z,11.13
2022-10-29T09:47:50.188Z,10.25
2022-10-29T09:50:49.347Z,14.27
2022-10-29T09:53:39.362Z,9.82
2022-10-29T09:56:29.852Z,14.48
2022-10-29T09:59:31.170Z,9.57
2022-10-29T10:02:30.462Z,14.35
2022-10-29T10:05:26.562Z,11.63
2022-10-29T10:08:16.873Z,11.93
2022-10-29T10:11:09.878Z,13.48
2022-10-29T10:14:01.339Z,17.33
2022-10-29T10:16:59.365Z,12.35
2022-10-29T10:19:49.274Z,8.10
2022-10-29T10:22:48.508Z,15.48
2022-10-29T10:25:39.959Z,17.17
2022-10-29T10:28:30.620Z,19.27
2022-10-29T10:31:18.251Z,14.85
2022-10-29T10:34:19.269Z,17.92
2022-10-29T10:37:15.749Z,10.63
2022-10-29T10:40:08.932Z,9.40
2022-10-29T10:42:57.748Z,11.20
2022-10-29T10:45:46.601Z,16.33
2022-10-29T10:51:38.697Z,13.40
2022-10-29T10:54:42.112Z,14.23
2022-10-29T10:57:37.248Z,10.57
2022-10-29T11:00:25.386Z,14.45
2022-10-29T11:03:21.532Z,12.80
2022-10-29T11:06:16.138Z,14.45
2022-10-29T11:09:18.230Z,11.95
2022-10-29T11:12:14.735Z,15.45
2022-10-29T11:15:14.232Z,9.15
2022-10-29T11:18:13.789Z,9.20
2022-10-29T11:21:12.646Z,8.88
2022-10-29T11:24:12.354Z,10.85
2022-10-29T11:27:07.453Z,10.32
2022-10-29T11:30:05.580Z,10.75
2022-10-29T11:33:09.121Z,15.75
2022-10-29T11:36:13.055Z,9.25
2022-10-29T11:39:15.443Z,9.70
2022-10-29T11:44:54.097Z,8.30
2022-10-29T11:48:07.292Z,10.93
2022-10-29T11:51:03.876Z,11.43
2022-10-29T11:54:03.938Z,10.57
2022-10-29T11:57:00.124Z,13.10
2022-10-29T12:00:10.677Z,10.60
2022-10-29T12:03:25.372Z,8.68
2022-10-29T12:06:22.976Z,9.88
2022-10-29T12:10:03.159Z,10.90
2022-10-29T12:13:03.155Z,15.50
2022-10-29T12:16:09.201Z,10.93
2022-10-29T12:19:14.354Z,8.93
2022-10-29T12:22:18.014Z,17.25
2022-10-29T12:25:35.209Z,10.82
2022-10-29T12:28:35.999Z,7.65
2022-10-29T12:31:36.795Z,11.32
2022-10-29T12:34:35.129Z,15.30
2022-10-29T12:37:36.015Z,8.73
2022-10-29T12:40:29.513Z,7.70
2022-10-29T12:43:27.762Z,17.55
2022-10-29T12:46:29.570Z,11.50
2022-10-29T12:49:27.399Z,11.03
2022-10-29T12:52:23.978Z,11.07
2022-10-29T12:55:16.350Z,13.52
2022-10-29T12:58:49.794Z,12.93
2022-10-29T13:05:36.857Z,8.90
2022-10-29T13:08:36.087Z,13.48
2022-10-29T13:11:26.242Z,16.77
2022-10-29T13:14:25.543Z,15.57
2022-10-29T13:17:32.289Z,13.88
2022-10-29T13:20:27.926Z,12.23
2022-10-29T13:23:36.062Z,15.52
2022-10-29T13:27:21.895Z,12.30
2022-10-29T13:30:25.538Z,12.70
2022-10-29T13:34:06.376Z,14.27
2022-10-29T13:36:55.185Z,15.65
2022-10-29T13:39:42.669Z,20.23
2022-10-29T13:42:30.445Z,9.20
2022-10-29T13:45:21.076Z,10.10
2022-10-29T13:48:27.125Z,21.45
2022-10-29T13:51:36.064Z,8.88
2022-10-29T13:54:38.477Z,13.18
2022-10-29T14:00:24.400Z,10.35
2022-10-29T14:03:22.667Z,18.48
2022-10-29T14:06:18.281Z,7.80
2022-10-29T14:09:20.725Z,14.50
2022-10-29T14:12:17.048Z,11.75
2022-10-29T14:15:10.376Z,13.98
2022-10-29T14:17:59.780Z,13.05
2022-10-29T14:20:57.134Z,9.27
2022-10-29T14:24:01.217Z,9.27
2022-10-29T14:26:48.950Z,10.48
2022-10-29T14:29:36.950Z,11.70
2022-10-29T14:32:24.432Z,9.05
2022-10-29T14:35:17.586Z,8.40
2022-10-29T14:38:09.101Z,8.48
2022-10-29T14:40:59.013Z,7.40
2022-10-29T14:43:55.472Z,9.00
2022-10-29T14:46:52.921Z,10.40
2022-10-29T14:49:47.171Z,10.68
2022-10-29T14:52:41.000Z,9.05
2022-10-29T14:55:34.707Z,12.02
2022-10-29T14:58:28.898Z,10.63
2022-10-29T15:01:20.505Z,7.45
2022-10-29T15:04:21.435Z,9.97
2022-10-29T15:07:29.867Z,6.13
2022-10-29T15:10:27.008Z,12.07
2022-10-29T15:13:32.811Z,9.27
2022-10-29T15:16:22.550Z,4.63
2022-10-29T15:19:17.925Z,7.38
2022-10-29T15:22:10.633Z,10.98
2022-10-29T15:25:04.913Z,7.88
2022-10-29T15:27:54.812Z,7.53
2022-10-29T15:30:43.278Z,10.10
2022-10-29T15:33:33.474Z,9.23
2022-10-29T15:36:22.990Z,7.05
2022-10-29T15:39:23.035Z,9.55
2022-10-29T15:42:23.112Z,10.60
2022-10-29T15:45:22.002Z,12.50
2022-10-29T15:48:37.038Z,12.25
2022-10-29T15:51:29.374Z,10.10
2022-10-29T15:54:17.179Z,9.35
2022-10-29T15:57:05.426Z,14.00
2022-10-29T15:59:57.296Z,10.15
2022-10-29T16:02:46.720Z,10.82
2022-10-29T16:05:34.484Z,11.00
2022-10-29T16:08:29.284Z,9.32
2022-10-29T16:11:20.810Z,7.88
2022-10-29T16:14:11.268Z,6.07
2022-10-29T16:16:58.836Z,9.57
2022-10-29T16:19:48.034Z,9.68
2022-10-29T16:22:35.723Z,8.43
2022-10-29T16:25:28.649Z,8.07
2022-10-29T16:28:16.116Z,9.00
2022-10-29T16:31:03.730Z,8.55
2022-10-29T16:33:53.848Z,8.38
2022-10-29T16:36:44.939Z,9.20
2022-10-29T16:39:35.270Z,11.18
2022-10-29T16:42:32.057Z,8.88
2022-10-29T16:45:24.346Z,10.63
2022-10-29T16:48:11.738Z,10.45
2022-10-29T16:50:59.368Z,12.25
2022-10-29T16:53:48.424Z,11.60
2022-10-29T16:56:36.169Z,12.70
2022-10-29T16:59:24.428Z,15.10
2022-10-29T17:02:13.044Z,19.58
2022-10-29T17:05:00.763Z,25.77
2022-10-29T17:07:48.550Z,29.13
2022-10-29T17:10:38.353Z,30.27
2022-10-29T17:13:26.154Z,25.40
2022-10-29T17:16:16.353Z,25.90
2022-10-29T17:19:04.228Z,22.17
2022-10-29T17:21:52.310Z,21.75
2022-10-29T17:24:39.962Z,24.60
2022-10-29T17:27:31.379Z,25.60
2022-10-29T17:30:19.089Z,19.98
2022-10-29T17:33:07.231Z,18.23
2022-10-29T17:36:05.455Z,15.68
2022-10-29T17:38:53.224Z,13.77
2022-10-29T17:41:41.441Z,13.40
2022-10-29T17:44:32.169Z,12.00
2022-10-29T17:47:23.195Z,11.73
2022-10-29T17:50:13.762Z,11.05
2022-10-29T17:53:01.753Z,13.30
2022-10-29T17:55:50.002Z,10.75
2022-10-29T17:58:51.884Z,9.85
2022-10-29T18:01:42.462Z,9.77
2022-10-29T18:04:30.076Z,8.27
2022-10-29T18:07:17.549Z,10.85
2022-10-29T18:10:06.102Z,9.85
2022-10-29T18:12:54.037Z,8.85
2022-10-29T18:15:41.717Z,7.85
2022-10-29T18:18:38.288Z,9.30
2022-10-29T18:21:35.903Z,10.70
2022-10-29T18:24:24.256Z,12.30
2022-10-29T18:27:19.668Z,9.10
2022-10-29T18:30:09.497Z,7.88
2022-10-29T18:32:57.522Z,9.75
2022-10-29T18:35:46.881Z,11.73
2022-10-29T18:38:37.587Z,9.05
2022-10-29T18:41:26.871Z,8.77
2022-10-29T18:44:14.792Z,8.73
2022-10-29T18:47:02.571Z,8.23
2022-10-29T18:49:50.099Z,7.15
2022-10-29T18:52:41.408Z,7.85
2022-10-29T18:55:33.653Z,10.60
2022-10-29T18:58:24.316Z,10.63
2022-10-29T19:01:14.895Z,11.23
2022-10-29T19:04:07.292Z,8.98
2022-10-29T19:06:55.633Z,10.82
2022-10-29T19:09:44.671Z,8.20
2022-10-29T19:12:32.362Z,8.00
2022-10-29T19:15:19.925Z,8.75
2022-10-29T19:18:08.300Z,11.13
2022-10-29T19:20:55.903Z,10.13
2022-10-29T19:23:46.315Z,9.15
2022-10-29T19:26:37.094Z,9.90
2022-10-29T19:29:24.958Z,9.77
2022-10-29T19:32:12.837Z,8.82
2022-10-29T19:35:00.323Z,9.80
2022-10-29T19:37:48.028Z,10.50
2022-10-29T19:40:35.516Z,8.52
2022-10-29T19:43:25.094Z,11.73
2022-10-29T19:46:16.716Z,9.10
2022-10-29T19:49:05.864Z,8.85
2022-10-29T19:51:53.355Z,8.90
2022-10-29T19:54:41.806Z,11.70
2022-10-29T19:57:30.840Z,9.73
2022-10-29T20:00:23.749Z,9.38
2022-10-29T20:03:12.581Z,9.35
2022-10-29T20:06:00.686Z,9.40
2022-10-29T20:08:48.083Z,8.82
2022-10-29T20:11:35.632Z,11.75
2022-10-29T20:14:28.784Z,11.23
2022-10-29T20:17:18.291Z,8.00
2022-10-29T20:20:08.867Z,8.75
2022-10-29T20:22:59.498Z,11.63
2022-10-29T20:25:50.556Z,7.95
2022-10-29T20:28:50.331Z,7.95
2022-10-29T20:31:45.351Z,11.80
2022-10-29T20:34:36.633Z,10.32
2022-10-29T20:37:24.237Z,10.00
2022-10-29T20:40:13.989Z,11.07
2022-10-29T20:43:01.559Z,13.20
2022-10-29T20:45:49.419Z,11.10
2022-10-29T20:48:36.958Z,10.23
2022-10-29T20:51:26.399Z,10.98
2022-10-29T20:54:14.342Z,11.55
2022-10-29T20:57:03.438Z,8.73
2022-10-29T20:59:53.012Z,12.02
2022-10-29T21:02:40.530Z,7.63
2022-10-29T21:05:28.256Z,9.13
2022-10-29T21:08:17.043Z,10.38
2022-10-29T21:11:07.581Z,8.75
2022-10-29T21:13:55.362Z,12.23
2022-10-29T21:16:43.052Z,10.00
2022-10-29T21:19:30.653Z,8.55
2022-10-29T21:22:19.267Z,7.43
2022-10-29T21:25:09.406Z,9.48
2022-10-29T21:27:57.004Z,8.40
2022-10-29T21:30:45.364Z,10.18
2022-10-29T21:33:33.229Z,8.27
2022-10-29T21:36:21.099Z,8.00
2022-10-29T21:39:08.781Z,8.73
2022-10-29T21:41:57.611Z,7.32
2022-10-29T21:44:46.502Z,10.02
2022-10-29T21:47:33.937Z,10.90
2022-10-29T21:50:21.443Z,7.35
2022-10-29T21:53:09.837Z,7.55
2022-10-29T21:55:58.171Z,11.07
2022-10-29T21:58:46.950Z,7.43
2022-10-29T22:01:34.706Z,10.13
2022-10-29T22:04:22.592Z,7.95
2022-10-29T22:07:10.880Z,9.05
2022-10-29T22:09:58.731Z,9.88
2022-10-29T22:12:46.065Z,7.47
2022-10-29T22:15:34.923Z,10.25
2022-10-29T22:18:22.684Z,8.50
2022-10-29T22:21:15.418Z,6.80
2022-10-29T22:24:03.216Z,8.50
2022-10-29T22:26:50.481Z,9.02
2022-10-29T22:29:38.044Z,11.65
2022-10-29T22:32:27.051Z,8.07
2022-10-29T22:35:14.752Z,7.28
2022-10-29T22:38:02.504Z,8.35
2022-10-29T22:40:50.136Z,8.48
2022-10-29T22:43:38.775Z,7.28
2022-10-29T22:46:28.864Z,6.88
2022-10-29T22:49:17.818Z,10.40
2022-10-29T22:52:05.936Z,8.77
2022-10-29T22:54:53.986Z,8.25
2022-10-29T22:57:41.666Z,6.72
2022-10-29T23:00:29.540Z,7.30
2022-10-29T23:03:16.943Z,7.50
2022-10-29T23:06:08.089Z,7.25
2022-10-29T23:08:58.229Z,7.72
2022-10-29T23:11:45.927Z,7.35
2022-10-29T23:14:33.295Z,7.30
2022-10-29T23:17:20.629Z,8.57
2022-10-29T23:20:08.828Z,7.22
2022-10-29T23:22:58.230Z,8.50
2022-10-29T23:25:46.214Z,6.68
2022-10-29T23:28:38.833Z,6.22
2022-10-29T23:34:15.997Z,7.35
2022-10-29T23:37:05.752Z,5.75
2022-10-29T23:39:58.872Z,9.30
2022-10-29T23:42:46.339Z,7.28
2022-10-29T23:45:33.763Z,10.27
2022-10-29T23:48:21.259Z,10.00
2022-10-29T23:51:09.183Z,5.93
2022-10-29T23:53:57.691Z,6.57
2022-10-29T23:56:46.730Z,7.65
2022-10-29T23:59:34.071Z,7.50
